createdAt,value
2023-02-03T00:02:02.182Z,8.23
2023-02-03T00:04:29.022Z,7.37
2023-02-03T00:06:56.885Z,7.13
2023-02-03T00:09:23.855Z,8.13
2023-02-03T00:11:50.767Z,7.50
2023-02-03T00:14:17.661Z,8.73
2023-02-03T00:16:44.559Z,7.43
2023-02-03T00:19:11.449Z,7.97
2023-02-03T00:21:38.341Z,6.90
2023-02-03T00:24:05.541Z,6.40
2023-02-03T00:26:32.359Z,6.77
2023-02-03T00:29:00.701Z,7.17
2023-02-03T00:31:27.695Z,7.40
2023-02-03T00:33:56.450Z,6.67
2023-02-03T00:36:24.205Z,5.97
2023-02-03T00:38:51.155Z,5.73
2023-02-03T00:41:19.139Z,7.43
2023-02-03T00:43:46.287Z,6.23
2023-02-03T00:46:13.617Z,6.70
2023-02-03T00:48:40.792Z,6.67
2023-02-03T00:51:07.909Z,7.20
2023-02-03T00:53:34.800Z,5.00
2023-02-03T00:56:01.817Z,7.03
2023-02-03T00:58:28.707Z,5.27
2023-02-03T01:00:57.237Z,5.57
2023-02-03T01:03:24.302Z,6.23
2023-02-03T01:05:51.321Z,5.87
2023-02-03T01:08:18.514Z,7.23
2023-02-03T01:10:45.534Z,7.13
2023-02-03T01:13:12.370Z,6.90
2023-02-03T01:15:46.001Z,5.87
2023-02-03T01:18:12.936Z,4.83
2023-02-03T01:20:39.748Z,5.30
2023-02-03T01:23:06.559Z,4.83
2023-02-03T01:25:35.741Z,5.60
2023-02-03T01:28:02.665Z,8.03
2023-02-03T01:30:29.786Z,6.23
2023-02-03T01:32:56.827Z,5.17
2023-02-03T01:35:23.638Z,6.03
2023-02-03T01:37:50.425Z,6.23
2023-02-03T01:40:17.519Z,6.33
2023-02-03T01:42:44.378Z,6.07
2023-02-03T01:45:13.464Z,6.23
2023-02-03T01:47:49.611Z,6.43
2023-02-03T01:50:30.316Z,4.60
2023-02-03T01:53:01.759Z,5.40
2023-02-03T01:55:34.700Z,5.43
2023-02-03T01:58:16.084Z,6.27
2023-02-03T02:00:44.012Z,4.77
2023-02-03T02:03:11.324Z,6.83
2023-02-03T02:06:00.672Z,4.63
2023-02-03T02:08:28.336Z,4.77
2023-02-03T02:10:55.746Z,4.87
2023-02-03T02:13:23.455Z,6.40
2023-02-03T02:16:15.635Z,5.00
2023-02-03T02:19:04.340Z,4.70
2023-02-03T02:21:59.184Z,5.97
2023-02-03T02:24:45.208Z,4.77
2023-02-03T02:27:28.709Z,4.00
2023-02-03T02:30:26.148Z,5.47
2023-02-03T02:33:05.418Z,5.93
2023-02-03T02:35:54.178Z,4.93
2023-02-03T02:38:34.756Z,3.37
2023-02-03T02:41:23.362Z,2.97
2023-02-03T02:44:07.797Z,5.10
2023-02-03T02:46:43.684Z,4.40
2023-02-03T02:49:35.359Z,3.23
2023-02-03T02:52:05.440Z,3.30
2023-02-03T02:54:37.677Z,3.97
2023-02-03T02:57:05.737Z,4.10
2023-02-03T02:59:32.725Z,3.40
2023-02-03T03:01:59.534Z,3.50
2023-02-03T03:04:30.212Z,3.97
2023-02-03T03:07:14.234Z,4.40
2023-02-03T03:09:45.856Z,4.20
2023-02-03T03:12:15.419Z,4.80
2023-02-03T03:14:55.246Z,3.30
2023-02-03T03:17:29.720Z,4.40
2023-02-03T03:20:01.270Z,5.70
2023-02-03T03:22:35.003Z,5.33
2023-02-03T03:25:09.923Z,5.90
2023-02-03T03:27:41.043Z,4.63
2023-02-03T03:30:18.387Z,5.23
2023-02-03T03:32:46.251Z,6.20
2023-02-03T03:35:13.254Z,5.93
2023-02-03T03:37:50.235Z,7.27
2023-02-03T03:40:30.581Z,6.53
2023-02-03T03:43:05.885Z,7.80
2023-02-03T03:45:41.163Z,7.90
2023-02-03T03:48:12.321Z,6.37
2023-02-03T03:50:46.122Z,6.30
2023-02-03T03:53:15.410Z,8.57
2023-02-03T03:55:44.602Z,6.53
2023-02-03T03:58:15.924Z,9.60
2023-02-03T04:00:44.902Z,8.93
2023-02-03T04:03:19.277Z,12.33
2023-02-03T04:05:46.485Z,10.07
2023-02-03T04:08:13.465Z,9.37
2023-02-03T04:10:42.226Z,8.27
2023-02-03T04:13:11.093Z,11.97
2023-02-03T04:15:38.487Z,10.53
2023-02-03T04:18:06.617Z,9.90
2023-02-03T04:20:33.821Z,7.03
2023-02-03T04:23:00.711Z,9.67
2023-02-03T04:25:27.610Z,8.57
2023-02-03T04:27:55.583Z,9.53
2023-02-03T04:30:23.160Z,7.00
2023-02-03T04:32:50.190Z,8.53
2023-02-03T04:35:17.227Z,10.10
2023-02-03T04:37:44.093Z,9.77
2023-02-03T04:40:12.155Z,10.13
2023-02-03T04:42:40.081Z,9.83
2023-02-03T04:45:08.825Z,9.10
2023-02-03T04:47:36.285Z,8.73
2023-02-03T04:50:03.688Z,12.20
2023-02-03T04:52:30.526Z,10.07
2023-02-03T04:54:57.521Z,8.40
2023-02-03T04:57:24.405Z,10.17
2023-02-03T04:59:51.206Z,9.77
2023-02-03T05:02:18.032Z,9.50
2023-02-03T05:04:44.898Z,8.37
2023-02-03T05:07:11.829Z,9.60
2023-02-03T05:09:38.632Z,9.97
2023-02-03T05:12:05.694Z,8.97
2023-02-03T05:14:32.513Z,8.67
2023-02-03T05:16:59.465Z,8.03
2023-02-03T05:19:26.415Z,7.13
2023-02-03T05:21:53.278Z,8.83
2023-02-03T05:24:20.127Z,8.57
2023-02-03T05:26:46.940Z,8.97
2023-02-03T05:29:13.775Z,9.90
2023-02-03T05:31:40.639Z,8.13
2023-02-03T05:34:07.744Z,7.70
2023-02-03T05:36:34.582Z,7.23
2023-02-03T05:39:01.368Z,7.07
2023-02-03T05:41:46.634Z,8.57
2023-02-03T05:44:13.499Z,9.50
2023-02-03T05:46:40.344Z,6.93
2023-02-03T05:49:07.280Z,8.13
2023-02-03T05:51:34.113Z,7.97
2023-02-03T05:54:00.982Z,10.93
2023-02-03T05:56:27.786Z,7.17
2023-02-03T05:58:54.657Z,8.03
2023-02-03T06:01:21.581Z,8.53
2023-02-03T06:03:48.981Z,9.27
2023-02-03T06:06:16.368Z,9.77
2023-02-03T06:08:43.711Z,8.17
2023-02-03T06:11:11.487Z,11.53
2023-02-03T06:13:38.627Z,8.80
2023-02-03T06:16:05.514Z,9.70
2023-02-03T06:18:32.531Z,9.37
2023-02-03T06:20:59.404Z,9.20
2023-02-03T06:23:26.263Z,11.43
2023-02-03T06:25:53.261Z,11.30
2023-02-03T06:28:20.244Z,11.53
2023-02-03T06:30:50.343Z,9.63
2023-02-03T06:33:17.300Z,8.10
2023-02-03T06:35:44.172Z,9.53
2023-02-03T06:38:11.285Z,9.40
2023-02-03T06:40:38.217Z,11.70
2023-02-03T06:43:05.061Z,9.60
2023-02-03T06:45:31.880Z,11.53
2023-02-03T06:47:58.718Z,12.67
2023-02-03T06:50:25.822Z,9.77
2023-02-03T06:52:52.806Z,9.33
2023-02-03T06:55:19.747Z,13.30
2023-02-03T06:57:47.556Z,11.80
2023-02-03T07:00:18.743Z,11.83
2023-02-03T07:02:46.572Z,10.57
2023-02-03T07:05:13.873Z,9.30
2023-02-03T07:07:40.792Z,8.97
2023-02-03T07:10:08.363Z,9.77
2023-02-03T07:12:36.786Z,11.83
2023-02-03T07:15:07.232Z,11.13
2023-02-03T07:17:34.088Z,8.30
2023-02-03T07:20:00.907Z,8.40
2023-02-03T07:22:27.815Z,13.57
2023-02-03T07:24:54.623Z,10.13
2023-02-03T07:27:21.620Z,9.10
2023-02-03T07:29:48.653Z,10.40
2023-02-03T07:32:15.555Z,11.93
2023-02-03T07:34:42.441Z,8.37
2023-02-03T07:37:09.318Z,7.80
2023-02-03T07:39:36.185Z,11.17
2023-02-03T07:42:03.033Z,6.97
2023-02-03T07:44:29.932Z,6.47
2023-02-03T07:46:56.826Z,8.43
2023-02-03T07:49:23.711Z,7.10
2023-02-03T07:51:50.942Z,6.87
2023-02-03T07:54:17.854Z,9.70
2023-02-03T07:56:44.664Z,7.47
2023-02-03T07:59:11.519Z,8.13
2023-02-03T08:01:38.351Z,10.90
2023-02-03T08:04:05.769Z,8.07
2023-02-03T08:06:32.786Z,8.70
2023-02-03T08:08:59.824Z,6.37
2023-02-03T08:11:26.713Z,6.10
2023-02-03T08:13:53.528Z,7.43
2023-02-03T08:16:20.475Z,7.87
2023-02-03T08:18:47.367Z,7.60
2023-02-03T08:21:14.243Z,7.77
2023-02-03T08:23:41.939Z,9.37
2023-02-03T08:26:09.109Z,7.17
2023-02-03T08:28:35.915Z,10.17
2023-02-03T08:31:09.137Z,11.07
2023-02-03T08:36:20.397Z,8.23
2023-02-03T08:38:47.330Z,8.73
2023-02-03T08:41:17.982Z,7.03
2023-02-03T08:43:45.463Z,8.27
2023-02-03T08:46:12.969Z,8.80
2023-02-03T08:48:39.854Z,8.80
2023-02-03T08:51:15.070Z,8.40
2023-02-03T08:53:41.976Z,9.23
2023-02-03T08:56:11.479Z,9.90
2023-02-03T08:58:39.301Z,7.57
2023-02-03T09:01:10.870Z,7.57
2023-02-03T09:03:38.519Z,8.10
2023-02-03T09:06:07.022Z,6.67
2023-02-03T09:08:33.978Z,6.67
2023-02-03T09:11:00.826Z,6.63
2023-02-03T09:13:27.676Z,7.33
2023-02-03T09:15:54.501Z,6.60
2023-02-03T09:18:21.343Z,7.57
2023-02-03T09:20:48.153Z,7.67
2023-02-03T09:23:15.260Z,8.03
2023-02-03T09:25:45.788Z,8.17
2023-02-03T09:28:13.550Z,8.83
2023-02-03T09:30:40.388Z,6.43
2023-02-03T09:33:07.266Z,4.57
2023-02-03T09:35:34.153Z,7.63
2023-02-03T09:38:01.267Z,5.10
2023-02-03T09:40:33.694Z,5.87
2023-02-03T09:43:24.835Z,5.27
2023-02-03T09:45:51.859Z,4.93
2023-02-03T09:48:25.691Z,5.80
2023-02-03T09:50:53.737Z,6.83
2023-02-03T09:53:53.567Z,6.90
2023-02-03T09:56:34.484Z,5.60
2023-02-03T09:59:02.281Z,5.80
2023-02-03T10:01:41.949Z,5.00
2023-02-03T10:04:39.903Z,6.70
2023-02-03T10:07:25.410Z,4.93
2023-02-03T10:10:25.618Z,4.03
2023-02-03T10:13:03.358Z,3.97
2023-02-03T10:15:40.559Z,3.07
2023-02-03T10:18:13.176Z,3.70
2023-02-03T10:20:50.222Z,4.20
2023-02-03T10:23:22.574Z,3.57
2023-02-03T10:25:58.472Z,3.57
2023-02-03T10:28:30.951Z,4.13
2023-02-03T10:31:00.170Z,3.97
2023-02-03T10:33:31.318Z,3.30
2023-02-03T10:36:15.452Z,3.23
2023-02-03T10:38:52.530Z,3.90
2023-02-03T10:41:21.155Z,3.33
2023-02-03T10:43:53.244Z,3.63
2023-02-03T10:46:48.712Z,2.00
2023-02-03T10:49:16.494Z,2.63
2023-02-03T10:51:46.899Z,3.73
2023-02-03T10:54:32.862Z,4.90
2023-02-03T10:57:06.289Z,4.63
2023-02-03T10:59:41.722Z,7.60
2023-02-03T11:02:10.885Z,3.23
2023-02-03T11:04:37.987Z,3.67
2023-02-03T11:07:08.259Z,5.43
2023-02-03T11:09:45.222Z,3.33
2023-02-03T11:12:17.695Z,4.00
2023-02-03T11:14:49.032Z,4.73
2023-02-03T11:17:19.370Z,3.80
2023-02-03T11:19:48.263Z,5.20
2023-02-03T11:22:28.772Z,3.50
2023-02-03T11:24:56.362Z,3.10
2023-02-03T11:27:25.001Z,3.40
2023-02-03T11:30:08.142Z,6.00
2023-02-03T11:32:42.189Z,4.20
2023-02-03T11:35:19.924Z,4.07
2023-02-03T11:37:50.160Z,3.93
2023-02-03T11:40:18.246Z,4.30
2023-02-03T11:42:49.500Z,4.00
2023-02-03T11:45:26.441Z,4.50
2023-02-03T11:48:11.307Z,3.83
2023-02-03T11:51:02.821Z,4.57
2023-02-03T11:53:56.870Z,3.20
2023-02-03T11:56:46.874Z,2.87
2023-02-03T11:59:35.691Z,3.87
2023-02-03T12:02:49.048Z,5.07
2023-02-03T12:05:30.964Z,5.37
2023-02-03T12:08:22.630Z,4.23
2023-02-03T12:11:24.029Z,3.13
2023-02-03T12:14:17.477Z,4.13
2023-02-03T12:16:56.252Z,4.97
2023-02-03T12:19:29.795Z,3.13
2023-02-03T12:22:09.988Z,2.87
2023-02-03T12:25:07.814Z,4.17
2023-02-03T12:27:43.546Z,3.90
2023-02-03T12:30:29.636Z,4.43
2023-02-03T12:33:16.051Z,4.23
2023-02-03T12:35:52.639Z,4.53
2023-02-03T12:38:31.725Z,4.57
2023-02-03T12:41:01.153Z,2.97
2023-02-03T12:43:42.089Z,3.20
2023-02-03T12:46:24.600Z,4.80
2023-02-03T12:49:00.262Z,4.67
2023-02-03T12:51:54.645Z,6.77
2023-02-03T12:54:42.424Z,3.30
2023-02-03T12:57:20.789Z,2.97
2023-02-03T13:00:04.608Z,5.20
2023-02-03T13:02:42.160Z,4.43
2023-02-03T13:05:22.924Z,4.57
2023-02-03T13:07:57.376Z,4.17
2023-02-03T13:10:29.685Z,5.53
2023-02-03T13:13:00.414Z,4.57
2023-02-03T13:15:27.290Z,5.10
2023-02-03T13:18:15.700Z,6.73
2023-02-03T13:20:42.617Z,6.37
2023-02-03T13:23:16.035Z,6.67
2023-02-03T13:26:11.050Z,6.50
2023-02-03T13:29:05.890Z,6.27
2023-02-03T13:31:52.844Z,7.27
2023-02-03T13:34:50.855Z,6.67
2023-02-03T13:37:29.547Z,6.53
2023-02-03T13:40:24.068Z,7.70
2023-02-03T13:42:57.858Z,8.43
2023-02-03T13:45:30.252Z,9.77
2023-02-03T13:48:10.740Z,6.50
2023-02-03T13:50:38.904Z,10.60
2023-02-03T13:53:16.572Z,8.83
2023-02-03T13:55:52.786Z,11.93
2023-02-03T13:58:32.696Z,10.37
2023-02-03T14:01:20.614Z,11.10
2023-02-03T14:03:48.606Z,10.33
2023-02-03T14:06:37.163Z,10.03
2023-02-03T14:09:19.370Z,9.97
2023-02-03T14:11:49.281Z,13.67
2023-02-03T14:14:16.069Z,11.17
2023-02-03T14:16:54.273Z,11.83
2023-02-03T14:19:31.385Z,11.97
2023-02-03T14:22:08.825Z,10.53
2023-02-03T14:24:42.551Z,13.73
2023-02-03T14:27:29.973Z,11.30
2023-02-03T14:30:10.771Z,12.67
2023-02-03T14:32:55.352Z,13.30
2023-02-03T14:35:32.324Z,12.27
2023-02-03T14:38:02.908Z,13.53
2023-02-03T14:40:46.262Z,15.47
2023-02-03T14:43:24.661Z,14.37
2023-02-03T14:46:15.154Z,12.57
2023-02-03T14:49:18.218Z,14.77
2023-02-03T14:52:11.077Z,14.07
2023-02-03T14:54:57.938Z,15.87
2023-02-03T14:57:58.767Z,13.70
2023-02-03T15:00:29.437Z,15.17
2023-02-03T15:03:10.996Z,15.63
2023-02-03T15:05:42.446Z,16.23
2023-02-03T15:08:36.059Z,16.70
2023-02-03T15:11:43.673Z,14.57
2023-02-03T15:14:24.477Z,16.73
2023-02-03T15:17:01.336Z,13.33
2023-02-03T15:19:38.146Z,12.43
2023-02-03T15:22:26.621Z,12.27
2023-02-03T15:25:04.234Z,16.67
2023-02-03T15:27:32.555Z,15.80
2023-02-03T15:30:14.006Z,15.17
2023-02-03T15:32:47.008Z,15.27
2023-02-03T15:35:19.548Z,12.17
2023-02-03T15:37:52.113Z,14.03
2023-02-03T15:40:24.088Z,14.73
2023-02-03T15:43:05.748Z,14.10
2023-02-03T15:45:37.862Z,16.03
2023-02-03T15:48:06.993Z,14.80
2023-02-03T15:50:43.293Z,16.33
2023-02-03T15:53:41.040Z,15.17
2023-02-03T15:56:26.340Z,15.23
2023-02-03T15:58:53.845Z,16.00
2023-02-03T16:01:24.053Z,11.93
2023-02-03T16:03:56.047Z,14.07
2023-02-03T16:06:38.499Z,17.10
2023-02-03T16:09:07.131Z,15.23
2023-02-03T16:11:38.775Z,13.60
2023-02-03T16:14:11.895Z,15.10
2023-02-03T16:17:02.737Z,15.17
2023-02-03T16:19:34.272Z,17.20
2023-02-03T16:22:01.207Z,15.77
2023-02-03T16:24:35.163Z,15.20
2023-02-03T16:27:27.010Z,14.37
2023-02-03T16:30:24.628Z,17.80
2023-02-03T16:33:35.289Z,20.60
2023-02-03T16:36:30.295Z,18.70
2023-02-03T16:39:20.029Z,15.73
2023-02-03T16:42:05.178Z,18.53
2023-02-03T16:44:50.421Z,18.53
2023-02-03T16:47:43.836Z,23.97
2023-02-03T16:50:39.717Z,18.33
2023-02-03T16:53:15.942Z,22.93
2023-02-03T16:55:46.421Z,24.23
2023-02-03T16:58:13.744Z,21.10
2023-02-03T17:00:42.561Z,18.47
2023-02-03T17:03:14.806Z,22.63
2023-02-03T17:05:43.608Z,20.00
2023-02-03T17:08:10.549Z,22.13
2023-02-03T17:10:38.835Z,22.53
2023-02-03T17:13:05.744Z,18.93
2023-02-03T17:15:32.690Z,21.43
2023-02-03T17:18:00.180Z,19.87
2023-02-03T17:20:27.027Z,21.00
2023-02-03T17:22:54.713Z,22.20
2023-02-03T17:25:21.818Z,21.17
2023-02-03T17:27:48.767Z,22.43
2023-02-03T17:30:15.766Z,20.47
2023-02-03T17:32:42.619Z,19.27
2023-02-03T17:35:09.497Z,22.67
2023-02-03T17:37:36.572Z,18.07
2023-02-03T17:54:05.985Z,23.23
2023-02-03T17:56:35.662Z,21.00
2023-02-03T17:59:04.757Z,20.47
2023-02-03T18:01:32.272Z,19.60
2023-02-03T18:04:02.111Z,19.73
2023-02-03T18:06:30.398Z,20.00
2023-02-03T18:09:06.185Z,18.43
2023-02-03T18:11:34.561Z,18.33
2023-02-03T18:14:02.185Z,17.80
2023-02-03T18:16:33.015Z,18.43
2023-02-03T18:19:02.756Z,18.50
2023-02-03T18:21:35.188Z,22.10
2023-02-03T18:24:02.739Z,21.20
2023-02-03T18:26:34.430Z,21.00
2023-02-03T18:29:01.490Z,22.10
2023-02-03T18:31:28.856Z,21.07
2023-02-03T18:33:55.721Z,19.37
2023-02-03T18:36:22.532Z,23.40
2023-02-03T18:38:49.367Z,22.97
2023-02-03T18:41:19.149Z,29.00
2023-02-03T18:43:49.077Z,27.00
2023-02-03T18:46:20.436Z,29.90
2023-02-03T18:48:47.753Z,30.17
2023-02-03T18:51:16.980Z,36.20
2023-02-03T18:53:49.124Z,35.20
2023-02-03T18:56:22.984Z,34.60
2023-02-03T18:58:49.946Z,35.83
2023-02-03T19:01:27.794Z,36.07
2023-02-03T19:03:56.178Z,37.33
2023-02-03T19:06:24.261Z,37.73
2023-02-03T19:08:51.710Z,34.60
2023-02-03T19:11:19.455Z,35.67
2023-02-03T19:13:46.503Z,35.50
2023-02-03T19:16:16.798Z,31.23
2023-02-03T19:18:47.349Z,33.13
2023-02-03T19:21:14.438Z,30.70
2023-02-03T19:23:42.155Z,27.40
2023-02-03T19:26:10.223Z,29.63
2023-02-03T19:28:37.836Z,30.90
2023-02-03T19:31:08.317Z,28.37
2023-02-03T19:33:36.364Z,27.57
2023-02-03T19:36:07.774Z,27.03
2023-02-03T19:38:35.417Z,28.40
2023-02-03T19:41:02.588Z,29.40
2023-02-03T19:43:32.609Z,29.47
2023-02-03T19:46:00.051Z,26.13
2023-02-03T19:48:27.170Z,27.43
2023-02-03T19:50:54.021Z,31.33
2023-02-03T19:53:21.734Z,26.67
2023-02-03T19:55:48.856Z,26.77
2023-02-03T19:58:16.025Z,26.53
2023-02-03T20:00:43.305Z,28.57
2023-02-03T20:03:10.692Z,27.37
2023-02-03T20:05:38.215Z,23.67
2023-02-03T20:08:05.803Z,27.33
2023-02-03T20:10:33.078Z,28.37
2023-02-03T20:13:00.355Z,26.60
2023-02-03T20:15:27.492Z,26.27
2023-02-03T20:17:54.438Z,25.70
2023-02-03T20:20:21.800Z,26.23
2023-02-03T20:22:49.169Z,21.50
2023-02-03T20:25:16.506Z,22.70
2023-02-03T20:27:43.447Z,26.73
2023-02-03T20:30:11.796Z,25.13
2023-02-03T20:32:38.890Z,23.67
2023-02-03T20:35:06.880Z,25.90
2023-02-03T20:37:36.134Z,25.17
2023-02-03T20:40:11.600Z,24.73
2023-02-03T20:42:38.423Z,25.97
2023-02-03T20:45:17.195Z,24.50
2023-02-03T20:47:44.559Z,25.33
2023-02-03T20:50:19.891Z,29.17
2023-02-03T20:52:48.400Z,28.43
2023-02-03T20:55:18.651Z,26.53
2023-02-03T20:57:47.631Z,28.37
2023-02-03T21:00:40.804Z,27.63
2023-02-03T21:03:29.615Z,27.23
2023-02-03T21:05:56.694Z,27.00
2023-02-03T21:08:23.649Z,25.70
2023-02-03T21:10:50.923Z,28.10
2023-02-03T21:13:34.237Z,27.70
2023-02-03T21:16:04.660Z,29.90
2023-02-03T21:18:38.947Z,24.97
2023-02-03T21:21:15.936Z,29.83
2023-02-03T21:23:47.201Z,28.33
2023-02-03T21:26:20.606Z,27.43
2023-02-03T21:28:52.188Z,27.17
2023-02-03T21:31:27.697Z,27.63
2023-02-03T21:33:56.597Z,26.20
2023-02-03T21:36:30.153Z,24.87
2023-02-03T21:39:01.709Z,24.47
2023-02-03T21:41:35.407Z,26.50
2023-02-03T21:44:02.256Z,24.17
2023-02-03T21:46:32.782Z,27.83
2023-02-03T21:49:01.484Z,24.60
2023-02-03T21:51:35.621Z,26.33
2023-02-03T21:54:15.725Z,24.77
2023-02-03T21:56:43.264Z,24.80
2023-02-03T21:59:16.975Z,27.23
2023-02-03T22:01:43.955Z,25.67
2023-02-03T22:04:10.750Z,26.27
2023-02-03T22:06:40.594Z,24.67
2023-02-03T22:09:12.787Z,25.37
2023-02-03T22:11:39.795Z,26.17
2023-02-03T22:14:06.883Z,25.53
2023-02-03T22:16:33.824Z,26.23
2023-02-03T22:19:00.756Z,22.83
2023-02-03T22:21:27.698Z,25.47
2023-02-03T22:23:54.512Z,22.43
2023-02-03T22:26:22.537Z,26.03
2023-02-03T22:28:52.856Z,24.60
2023-02-03T22:31:20.308Z,28.20
2023-02-03T22:33:47.633Z,23.50
2023-02-03T22:36:14.926Z,23.67
2023-02-03T22:38:42.646Z,25.57
2023-02-03T22:41:13.982Z,24.77
2023-02-03T22:43:41.514Z,24.87
2023-02-03T22:46:08.840Z,23.33
2023-02-03T22:48:35.781Z,26.80
2023-02-03T22:51:02.657Z,23.83
2023-02-03T22:53:29.919Z,24.37
2023-02-03T22:55:57.044Z,24.23
2023-02-03T22:58:23.913Z,22.77
2023-02-03T23:00:51.002Z,21.67
2023-02-03T23:03:17.984Z,24.47
2023-02-03T23:05:44.972Z,21.40
2023-02-03T23:08:11.845Z,21.00
2023-02-03T23:10:38.784Z,20.03
2023-02-03T23:13:05.709Z,19.67
2023-02-03T23:15:32.635Z,18.07
2023-02-03T23:17:59.603Z,18.77
2023-02-03T23:20:26.489Z,17.80
2023-02-03T23:22:53.302Z,20.13
2023-02-03T23:25:20.144Z,18.20
2023-02-03T23:27:47.107Z,19.87
2023-02-03T23:30:14.772Z,17.23
2023-02-03T23:32:41.627Z,17.43
2023-02-03T23:35:27.076Z,18.33
2023-02-03T23:37:54.246Z,21.33
2023-02-03T23:40:22.076Z,17.47
2023-02-03T23:42:48.984Z,18.13
2023-02-03T23:45:16.382Z,16.57
2023-02-03T23:47:44.862Z,16.10
2023-02-03T23:50:14.976Z,16.83
2023-02-03T23:52:41.909Z,16.33
2023-02-03T23:55:11.790Z,15.63
2023-02-03T23:57:39.299Z,16.20
